sensor_id;sensor_type;location;lat;lon;timestamp;temperature;humidity
23597;DHT22;40226;50.874;4.394;2023-03-01T00:00:19;2.20;1.00
23597;DHT22;40226;50.874;4.394;2023-03-01T00:02:45;2.30;1.00
23597;DHT22;40226;50.874;4.394;2023-03-01T00:05:10;2.30;1.00
23597;DHT22;40226;50.874;4.394;2023-03-01T00:07:36;2.20;1.00
23597;DHT22;40226;50.874;4.394;2023-03-01T00:10:02;2.00;99.90
23597;DHT22;40226;50.874;4.394;2023-03-01T00:12:27;2.00;99.90
23597;DHT22;40226;50.874;4.394;2023-03-01T00:14:53;2.00;99.90
23597;DHT22;40226;50.874;4.394;2023-03-01T00:17:18;2.10;63.50
23597;DHT22;40226;50.874;4.394;2023-03-01T00:19:44;2.10;99.90
23597;DHT22;40226;50.874;4.394;2023-03-01T00:22:10;2.00;99.90
23597;DHT22;40226;50.874;4.394;2023-03-01T00:24:35;2.20;82.30
23597;DHT22;40226;50.874;4.394;2023-03-01T00:27:01;1.90;99.90
23597;DHT22;40226;50.874;4.394;2023-03-01T00:29:27;1.80;99.90
23597;DHT22;40226;50.874;4.394;2023-03-01T00:31:52;1.70;99.90
23597;DHT22;40226;50.874;4.394;2023-03-01T00:34:18;1.70;99.90
23597;DHT22;40226;50.874;4.394;2023-03-01T00:36:44;1.70;99.90
23597;DHT22;40226;50.874;4.394;2023-03-01T00:39:12;1.80;99.90
23597;DHT22;40226;50.874;4.394;2023-03-01T00:41:38;1.70;99.90
23597;DHT22;40226;50.874;4.394;2023-03-01T00:44:05;1.90;99.90
23597;DHT22;40226;50.874;4.394;2023-03-01T00:46:30;2.00;99.90
23597;DHT22;40226;50.874;4.394;2023-03-01T00:48:56;1.90;99.90
23597;DHT22;40226;50.874;4.394;2023-03-01T00:51:24;1.90;99.90
23597;DHT22;40226;50.874;4.394;2023-03-01T00:53:55;2.10;99.90
23597;DHT22;40226;50.874;4.394;2023-03-01T00:56:23;2.00;99.90
23597;DHT22;40226;50.874;4.394;2023-03-01T00:58:49;1.80;99.90
23597;DHT22;40226;50.874;4.394;2023-03-01T01:01:20;1.70;99.90
23597;DHT22;40226;50.874;4.394;2023-03-01T01:03:52;1.80;99.90
23597;DHT22;40226;50.874;4.394;2023-03-01T01:06:24;2.00;99.90
23597;DHT22;40226;50.874;4.394;2023-03-01T01:08:50;2.00;99.90
23597;DHT22;40226;50.874;4.394;2023-03-01T01:11:17;1.90;99.90
23597;DHT22;40226;50.874;4.394;2023-03-01T01:13:44;1.80;99.90
23597;DHT22;40226;50.874;4.394;2023-03-01T01:16:10;1.80;99.90
23597;DHT22;40226;50.874;4.394;2023-03-01T01:18:36;1.70;99.90
23597;DHT22;40226;50.874;4.394;2023-03-01T01:21:10;1.50;1.00
23597;DHT22;40226;50.874;4.394;2023-03-01T01:23:37;1.40;1.00
23597;DHT22;40226;50.874;4.394;2023-03-01T01:26:08;1.50;1.00
23597;DHT22;40226;50.874;4.394;2023-03-01T01:28:34;1.50;1.00
23597;DHT22;40226;50.874;4.394;2023-03-01T01:31:00;1.50;1.00
23597;DHT22;40226;50.874;4.394;2023-03-01T01:33:26;1.30;1.00
23597;DHT22;40226;50.874;4.394;2023-03-01T01:35:52;1.30;1.00
23597;DHT22;40226;50.874;4.394;2023-03-01T01:38:17;1.30;1.00
23597;DHT22;40226;50.874;4.394;2023-03-01T01:40:47;1.20;1.00
23597;DHT22;40226;50.874;4.394;2023-03-01T01:43:22;1.20;1.00
23597;DHT22;40226;50.874;4.394;2023-03-01T01:45:48;1.10;1.00
23597;DHT22;40226;50.874;4.394;2023-03-01T01:48:20;1.20;1.00
23597;DHT22;40226;50.874;4.394;2023-03-01T01:50:54;1.30;1.00
23597;DHT22;40226;50.874;4.394;2023-03-01T01:53:22;1.20;1.00
23597;DHT22;40226;50.874;4.394;2023-03-01T01:55:53;1.40;1.00
23597;DHT22;40226;50.874;4.394;2023-03-01T01:58:20;1.30;1.00
23597;DHT22;40226;50.874;4.394;2023-03-01T02:00:47;1.40;1.00
23597;DHT22;40226;50.874;4.394;2023-03-01T02:03:23;1.50;1.00
23597;DHT22;40226;50.874;4.394;2023-03-01T02:08:57;1.40;1.00
23597;DHT22;40226;50.874;4.394;2023-03-01T02:11:24;1.30;1.00
23597;DHT22;40226;50.874;4.394;2023-03-01T02:13:51;1.30;1.00
23597;DHT22;40226;50.874;4.394;2023-03-01T02:16:17;1.20;1.00
23597;DHT22;40226;50.874;4.394;2023-03-01T02:18:43;1.10;1.00
23597;DHT22;40226;50.874;4.394;2023-03-01T02:23:47;1.20;1.00
23597;DHT22;40226;50.874;4.394;2023-03-01T02:26:41;1.20;1.00
23597;DHT22;40226;50.874;4.394;2023-03-01T02:29:07;1.30;1.00
23597;DHT22;40226;50.874;4.394;2023-03-01T02:31:33;1.30;1.00
23597;DHT22;40226;50.874;4.394;2023-03-01T02:34:15;1.30;1.00
23597;DHT22;40226;50.874;4.394;2023-03-01T02:36:47;1.10;1.00
23597;DHT22;40226;50.874;4.394;2023-03-01T02:39:26;1.30;1.00
23597;DHT22;40226;50.874;4.394;2023-03-01T02:41:55;1.10;1.00
23597;DHT22;40226;50.874;4.394;2023-03-01T02:44:21;1.00;1.00
23597;DHT22;40226;50.874;4.394;2023-03-01T02:46:49;1.10;1.00
23597;DHT22;40226;50.874;4.394;2023-03-01T02:49:19;1.10;1.00
23597;DHT22;40226;50.874;4.394;2023-03-01T02:54:51;1.20;1.00
23597;DHT22;40226;50.874;4.394;2023-03-01T02:57:18;1.10;1.00
23597;DHT22;40226;50.874;4.394;2023-03-01T02:59:45;1.00;1.00
23597;DHT22;40226;50.874;4.394;2023-03-01T03:05:07;1.00;1.00
23597;DHT22;40226;50.874;4.394;2023-03-01T03:07:36;0.80;1.00
23597;DHT22;40226;50.874;4.394;2023-03-01T03:10:05;0.70;1.00
23597;DHT22;40226;50.874;4.394;2023-03-01T03:12:31;0.80;1.00
23597;DHT22;40226;50.874;4.394;2023-03-01T03:14:57;0.90;1.00
23597;DHT22;40226;50.874;4.394;2023-03-01T03:17:23;0.90;1.00
23597;DHT22;40226;50.874;4.394;2023-03-01T03:19:49;0.70;1.00
23597;DHT22;40226;50.874;4.394;2023-03-01T03:22:15;0.90;1.00
23597;DHT22;40226;50.874;4.394;2023-03-01T03:24:40;1.00;1.00
23597;DHT22;40226;50.874;4.394;2023-03-01T03:27:06;0.90;1.00
23597;DHT22;40226;50.874;4.394;2023-03-01T03:29:33;0.80;1.00
23597;DHT22;40226;50.874;4.394;2023-03-01T03:31:59;0.70;1.00
23597;DHT22;40226;50.874;4.394;2023-03-01T03:34:25;0.80;1.00
23597;DHT22;40226;50.874;4.394;2023-03-01T03:36:56;0.80;1.00
23597;DHT22;40226;50.874;4.394;2023-03-01T03:39:25;0.80;1.00
23597;DHT22;40226;50.874;4.394;2023-03-01T03:41:52;0.90;1.00
23597;DHT22;40226;50.874;4.394;2023-03-01T03:44:17;0.70;1.00
23597;DHT22;40226;50.874;4.394;2023-03-01T03:46:43;0.70;1.00
23597;DHT22;40226;50.874;4.394;2023-03-01T03:49:09;0.70;1.00
23597;DHT22;40226;50.874;4.394;2023-03-01T03:51:34;0.70;1.00
23597;DHT22;40226;50.874;4.394;2023-03-01T03:54:00;0.70;1.00
23597;DHT22;40226;50.874;4.394;2023-03-01T03:56:25;0.70;1.00
23597;DHT22;40226;50.874;4.394;2023-03-01T03:58:52;0.70;1.00
23597;DHT22;40226;50.874;4.394;2023-03-01T04:01:18;0.60;1.00
23597;DHT22;40226;50.874;4.394;2023-03-01T04:03:43;0.60;1.00
23597;DHT22;40226;50.874;4.394;2023-03-01T04:06:14;0.60;1.00
23597;DHT22;40226;50.874;4.394;2023-03-01T04:08:40;0.50;1.00
23597;DHT22;40226;50.874;4.394;2023-03-01T04:11:06;0.50;1.00
23597;DHT22;40226;50.874;4.394;2023-03-01T04:13:51;0.50;1.00
23597;DHT22;40226;50.874;4.394;2023-03-01T04:16:18;0.50;1.00
23597;DHT22;40226;50.874;4.394;2023-03-01T04:18:44;0.50;1.00
23597;DHT22;40226;50.874;4.394;2023-03-01T04:21:10;0.30;1.00
23597;DHT22;40226;50.874;4.394;2023-03-01T04:23:37;0.30;1.00
23597;DHT22;40226;50.874;4.394;2023-03-01T04:26:03;0.40;1.00
23597;DHT22;40226;50.874;4.394;2023-03-01T04:28:38;0.30;1.00
23597;DHT22;40226;50.874;4.394;2023-03-01T04:31:08;0.30;1.00
23597;DHT22;40226;50.874;4.394;2023-03-01T04:33:46;0.20;1.00
23597;DHT22;40226;50.874;4.394;2023-03-01T04:36:14;0.20;1.00
23597;DHT22;40226;50.874;4.394;2023-03-01T04:38:40;0.20;1.00
23597;DHT22;40226;50.874;4.394;2023-03-01T04:41:07;0.20;1.00
23597;DHT22;40226;50.874;4.394;2023-03-01T04:43:34;0.10;1.00
23597;DHT22;40226;50.874;4.394;2023-03-01T04:46:01;0.20;1.00
23597;DHT22;40226;50.874;4.394;2023-03-01T04:48:28;0.20;1.00
23597;DHT22;40226;50.874;4.394;2023-03-01T04:50:54;0.30;1.00
23597;DHT22;40226;50.874;4.394;2023-03-01T04:53:19;0.10;1.00
23597;DHT22;40226;50.874;4.394;2023-03-01T04:55:45;0.10;1.00
23597;DHT22;40226;50.874;4.394;2023-03-01T04:58:10;0.10;1.00
23597;DHT22;40226;50.874;4.394;2023-03-01T05:00:36;0.10;1.00
23597;DHT22;40226;50.874;4.394;2023-03-01T05:03:02;0.20;1.00
23597;DHT22;40226;50.874;4.394;2023-03-01T05:05:35;0.20;1.00
23597;DHT22;40226;50.874;4.394;2023-03-01T05:08:09;0.20;1.00
23597;DHT22;40226;50.874;4.394;2023-03-01T05:10:52;0.20;1.00
23597;DHT22;40226;50.874;4.394;2023-03-01T05:13:19;0.20;1.00
23597;DHT22;40226;50.874;4.394;2023-03-01T05:15:54;0.10;1.00
23597;DHT22;40226;50.874;4.394;2023-03-01T05:18:20;0.10;1.00
23597;DHT22;40226;50.874;4.394;2023-03-01T05:20:46;0.00;1.00
23597;DHT22;40226;50.874;4.394;2023-03-01T05:23:12;0.10;1.00
23597;DHT22;40226;50.874;4.394;2023-03-01T05:25:38;0.10;1.00
23597;DHT22;40226;50.874;4.394;2023-03-01T05:28:07;0.20;1.00
23597;DHT22;40226;50.874;4.394;2023-03-01T05:30:35;0.20;1.00
23597;DHT22;40226;50.874;4.394;2023-03-01T05:33:01;0.10;1.00
23597;DHT22;40226;50.874;4.394;2023-03-01T05:35:27;0.10;1.00
23597;DHT22;40226;50.874;4.394;2023-03-01T05:37:53;0.00;1.00
23597;DHT22;40226;50.874;4.394;2023-03-01T05:40:21;-0.10;1.00
23597;DHT22;40226;50.874;4.394;2023-03-01T05:42:50;-0.20;1.00
23597;DHT22;40226;50.874;4.394;2023-03-01T05:45:18;-0.10;1.00
23597;DHT22;40226;50.874;4.394;2023-03-01T05:47:45;-0.20;1.00
23597;DHT22;40226;50.874;4.394;2023-03-01T05:50:21;-0.10;1.00
23597;DHT22;40226;50.874;4.394;2023-03-01T05:55:37;0.00;1.00
23597;DHT22;40226;50.874;4.394;2023-03-01T05:58:05;-0.10;1.00
23597;DHT22;40226;50.874;4.394;2023-03-01T06:00:32;-0.10;1.00
23597;DHT22;40226;50.874;4.394;2023-03-01T06:02:58;-0.10;1.00
23597;DHT22;40226;50.874;4.394;2023-03-01T06:05:25;0.00;1.00
23597;DHT22;40226;50.874;4.394;2023-03-01T06:07:51;0.00;1.00
23597;DHT22;40226;50.874;4.394;2023-03-01T06:10:21;-0.10;1.00
23597;DHT22;40226;50.874;4.394;2023-03-01T06:12:48;-0.10;1.00
23597;DHT22;40226;50.874;4.394;2023-03-01T06:15:15;-0.10;1.00
23597;DHT22;40226;50.874;4.394;2023-03-01T06:17:42;-0.10;1.00
23597;DHT22;40226;50.874;4.394;2023-03-01T06:20:14;0.00;1.00
23597;DHT22;40226;50.874;4.394;2023-03-01T06:22:40;0.00;1.00
23597;DHT22;40226;50.874;4.394;2023-03-01T06:25:07;-0.10;1.00
23597;DHT22;40226;50.874;4.394;2023-03-01T06:27:33;0.00;1.00
23597;DHT22;40226;50.874;4.394;2023-03-01T06:29:59;-0.10;1.00
23597;DHT22;40226;50.874;4.394;2023-03-01T06:32:24;-0.20;1.00
23597;DHT22;40226;50.874;4.394;2023-03-01T06:34:50;0.00;1.00
23597;DHT22;40226;50.874;4.394;2023-03-01T06:37:16;-0.10;1.00
23597;DHT22;40226;50.874;4.394;2023-03-01T06:39:41;-0.10;1.00
23597;DHT22;40226;50.874;4.394;2023-03-01T06:42:08;0.00;1.00
23597;DHT22;40226;50.874;4.394;2023-03-01T06:44:35;-0.10;1.00
23597;DHT22;40226;50.874;4.394;2023-03-01T06:47:01;-0.10;1.00
23597;DHT22;40226;50.874;4.394;2023-03-01T06:49:27;0.00;1.00
23597;DHT22;40226;50.874;4.394;2023-03-01T06:51:53;0.00;1.00
23597;DHT22;40226;50.874;4.394;2023-03-01T06:54:18;0.10;1.00
23597;DHT22;40226;50.874;4.394;2023-03-01T06:56:47;-0.10;1.00
23597;DHT22;40226;50.874;4.394;2023-03-01T06:59:13;0.00;1.00
23597;DHT22;40226;50.874;4.394;2023-03-01T07:01:39;0.10;1.00
23597;DHT22;40226;50.874;4.394;2023-03-01T07:04:04;0.10;1.00
23597;DHT22;40226;50.874;4.394;2023-03-01T07:06:30;0.20;1.00
23597;DHT22;40226;50.874;4.394;2023-03-01T07:08:56;0.00;1.00
23597;DHT22;40226;50.874;4.394;2023-03-01T07:11:21;0.20;1.00
23597;DHT22;40226;50.874;4.394;2023-03-01T07:13:48;0.30;1.00
23597;DHT22;40226;50.874;4.394;2023-03-01T07:16:14;0.30;1.00
23597;DHT22;40226;50.874;4.394;2023-03-01T07:18:40;0.40;1.00
23597;DHT22;40226;50.874;4.394;2023-03-01T07:21:08;0.20;1.00
23597;DHT22;40226;50.874;4.394;2023-03-01T07:23:34;0.10;1.00
23597;DHT22;40226;50.874;4.394;2023-03-01T07:26:00;0.20;1.00
23597;DHT22;40226;50.874;4.394;2023-03-01T07:28:26;0.20;1.00
23597;DHT22;40226;50.874;4.394;2023-03-01T07:30:52;0.10;1.00
23597;DHT22;40226;50.874;4.394;2023-03-01T07:33:18;0.20;1.00
23597;DHT22;40226;50.874;4.394;2023-03-01T07:35:44;0.30;1.00
23597;DHT22;40226;50.874;4.394;2023-03-01T07:38:09;0.40;1.00
23597;DHT22;40226;50.874;4.394;2023-03-01T07:40:35;0.50;1.00
23597;DHT22;40226;50.874;4.394;2023-03-01T07:43:01;0.50;1.00
23597;DHT22;40226;50.874;4.394;2023-03-01T07:45:27;0.40;1.00
23597;DHT22;40226;50.874;4.394;2023-03-01T07:47:54;0.60;1.00
23597;DHT22;40226;50.874;4.394;2023-03-01T07:50:20;0.80;1.00
23597;DHT22;40226;50.874;4.394;2023-03-01T07:52:46;0.90;1.00
23597;DHT22;40226;50.874;4.394;2023-03-01T07:55:12;0.90;1.00
23597;DHT22;40226;50.874;4.394;2023-03-01T07:57:38;1.00;1.00
23597;DHT22;40226;50.874;4.394;2023-03-01T08:00:05;1.10;1.00
23597;DHT22;40226;50.874;4.394;2023-03-01T08:02:31;1.20;1.00
23597;DHT22;40226;50.874;4.394;2023-03-01T08:04:57;1.30;1.00
23597;DHT22;40226;50.874;4.394;2023-03-01T08:07:22;1.20;1.00
23597;DHT22;40226;50.874;4.394;2023-03-01T08:09:48;1.30;1.00
23597;DHT22;40226;50.874;4.394;2023-03-01T08:12:14;1.30;1.00
23597;DHT22;40226;50.874;4.394;2023-03-01T08:14:41;1.40;1.00
23597;DHT22;40226;50.874;4.394;2023-03-01T08:17:07;1.40;1.00
23597;DHT22;40226;50.874;4.394;2023-03-01T08:19:33;1.50;1.00
23597;DHT22;40226;50.874;4.394;2023-03-01T08:22:02;1.60;1.00
23597;DHT22;40226;50.874;4.394;2023-03-01T08:24:28;1.60;1.00
23597;DHT22;40226;50.874;4.394;2023-03-01T08:26:54;1.50;1.00
23597;DHT22;40226;50.874;4.394;2023-03-01T08:29:20;1.60;1.00
23597;DHT22;40226;50.874;4.394;2023-03-01T08:31:46;1.70;1.00
23597;DHT22;40226;50.874;4.394;2023-03-01T08:34:15;1.80;1.00
23597;DHT22;40226;50.874;4.394;2023-03-01T08:36:43;1.90;1.00
23597;DHT22;40226;50.874;4.394;2023-03-01T08:39:11;1.90;1.00
23597;DHT22;40226;50.874;4.394;2023-03-01T08:41:39;2.00;1.00
23597;DHT22;40226;50.874;4.394;2023-03-01T08:44:05;2.00;1.00
23597;DHT22;40226;50.874;4.394;2023-03-01T08:46:39;2.10;1.00
23597;DHT22;40226;50.874;4.394;2023-03-01T08:49:11;2.20;1.00
23597;DHT22;40226;50.874;4.394;2023-03-01T08:51:37;2.30;1.00
23597;DHT22;40226;50.874;4.394;2023-03-01T08:54:05;2.50;1.00
23597;DHT22;40226;50.874;4.394;2023-03-01T08:56:32;2.50;1.00
23597;DHT22;40226;50.874;4.394;2023-03-01T08:58:57;2.60;1.00
23597;DHT22;40226;50.874;4.394;2023-03-01T09:01:23;2.50;1.00
23597;DHT22;40226;50.874;4.394;2023-03-01T09:03:49;2.60;1.00
23597;DHT22;40226;50.874;4.394;2023-03-01T09:06:15;2.50;1.00
23597;DHT22;40226;50.874;4.394;2023-03-01T09:08:43;2.60;1.00
23597;DHT22;40226;50.874;4.394;2023-03-01T09:11:11;2.80;1.00
23597;DHT22;40226;50.874;4.394;2023-03-01T09:13:37;2.80;99.90
23597;DHT22;40226;50.874;4.394;2023-03-01T09:16:08;2.90;99.90
23597;DHT22;40226;50.874;4.394;2023-03-01T09:18:35;3.10;99.90
23597;DHT22;40226;50.874;4.394;2023-03-01T09:21:15;3.20;99.90
23597;DHT22;40226;50.874;4.394;2023-03-01T09:23:43;3.40;99.90
23597;DHT22;40226;50.874;4.394;2023-03-01T09:26:11;3.50;99.90
23597;DHT22;40226;50.874;4.394;2023-03-01T09:28:37;3.40;99.90
23597;DHT22;40226;50.874;4.394;2023-03-01T09:31:05;3.40;81.90
23597;DHT22;40226;50.874;4.394;2023-03-01T09:33:31;3.40;94.40
23597;DHT22;40226;50.874;4.394;2023-03-01T09:36:03;3.40;99.90
23597;DHT22;40226;50.874;4.394;2023-03-01T09:38:29;3.50;63.10
23597;DHT22;40226;50.874;4.394;2023-03-01T09:40:55;3.50;1.00
23597;DHT22;40226;50.874;4.394;2023-03-01T09:46:08;3.80;1.00
23597;DHT22;40226;50.874;4.394;2023-03-01T09:48:46;3.80;1.00
23597;DHT22;40226;50.874;4.394;2023-03-01T09:53:51;4.10;1.00
23597;DHT22;40226;50.874;4.394;2023-03-01T09:56:41;4.30;99.90
23597;DHT22;40226;50.874;4.394;2023-03-01T10:02:11;4.10;99.90
23597;DHT22;40226;50.874;4.394;2023-03-01T10:04:50;4.20;91.80
23597;DHT22;40226;50.874;4.394;2023-03-01T10:10:10;4.10;99.90
23597;DHT22;40226;50.874;4.394;2023-03-01T10:12:42;4.10;1.00
23597;DHT22;40226;50.874;4.394;2023-03-01T10:17:48;4.20;99.90
23597;DHT22;40226;50.874;4.394;2023-03-01T10:20:30;4.20;99.90
23597;DHT22;40226;50.874;4.394;2023-03-01T10:22:59;4.30;99.90
23597;DHT22;40226;50.874;4.394;2023-03-01T10:28:54;4.60;6.60
23597;DHT22;40226;50.874;4.394;2023-03-01T10:31:22;4.80;1.00
23597;DHT22;40226;50.874;4.394;2023-03-01T10:33:48;4.90;99.90
23597;DHT22;40226;50.874;4.394;2023-03-01T10:36:17;5.00;91.20
23597;DHT22;40226;50.874;4.394;2023-03-01T10:38:54;4.90;1.00
23597;DHT22;40226;50.874;4.394;2023-03-01T10:41:21;5.00;99.90
23597;DHT22;40226;50.874;4.394;2023-03-01T10:46:37;5.20;35.50
23597;DHT22;40226;50.874;4.394;2023-03-01T10:51:42;5.30;99.90
23597;DHT22;40226;50.874;4.394;2023-03-01T10:54:20;5.40;1.00
23597;DHT22;40226;50.874;4.394;2023-03-01T10:56:54;5.60;99.90
23597;DHT22;40226;50.874;4.394;2023-03-01T10:59:27;6.20;99.90
23597;DHT22;40226;50.874;4.394;2023-03-01T11:02:28;7.00;99.90
23597;DHT22;40226;50.874;4.394;2023-03-01T11:10:27;9.10;1.00
23597;DHT22;40226;50.874;4.394;2023-03-01T11:12:53;9.60;99.90
23597;DHT22;40226;50.874;4.394;2023-03-01T11:15:27;9.80;99.90
23597;DHT22;40226;50.874;4.394;2023-03-01T11:17:54;9.90;1.00
23597;DHT22;40226;50.874;4.394;2023-03-01T11:20:27;9.80;1.00
23597;DHT22;40226;50.874;4.394;2023-03-01T11:25:35;10.10;1.00
23597;DHT22;40226;50.874;4.394;2023-03-01T11:28:04;10.30;1.00
23597;DHT22;40226;50.874;4.394;2023-03-01T11:30:57;10.90;1.00
23597;DHT22;40226;50.874;4.394;2023-03-01T11:36:30;11.30;99.90
23597;DHT22;40226;50.874;4.394;2023-03-01T11:39:04;11.30;99.90
23597;DHT22;40226;50.874;4.394;2023-03-01T11:41:32;11.30;99.90
23597;DHT22;40226;50.874;4.394;2023-03-01T11:52:21;12.60;99.90
23597;DHT22;40226;50.874;4.394;2023-03-01T11:55:18;11.70;99.90
23597;DHT22;40226;50.874;4.394;2023-03-01T12:19:53;12.40;99.90
23597;DHT22;40226;50.874;4.394;2023-03-01T12:22:29;13.00;99.90
23597;DHT22;40226;50.874;4.394;2023-03-01T12:25:16;12.80;99.90
23597;DHT22;40226;50.874;4.394;2023-03-01T12:33:26;13.90;99.90
23597;DHT22;40226;50.874;4.394;2023-03-01T12:39:09;13.70;99.90
23597;DHT22;40226;50.874;4.394;2023-03-01T12:42:07;13.70;99.90
23597;DHT22;40226;50.874;4.394;2023-03-01T12:50:53;14.50;99.90
23597;DHT22;40226;50.874;4.394;2023-03-01T12:53:46;15.00;90.00
23597;DHT22;40226;50.874;4.394;2023-03-01T12:56:17;14.80;99.90
23597;DHT22;40226;50.874;4.394;2023-03-01T13:12:42;14.50;42.30
23597;DHT22;40226;50.874;4.394;2023-03-01T13:15:30;14.70;31.00
23597;DHT22;40226;50.874;4.394;2023-03-01T13:18:04;14.80;20.70
23597;DHT22;40226;50.874;4.394;2023-03-01T13:21:00;15.50;28.00
23597;DHT22;40226;50.874;4.394;2023-03-01T13:23:30;15.70;27.70
23597;DHT22;40226;50.874;4.394;2023-03-01T13:31:01;14.80;1.00
23597;DHT22;40226;50.874;4.394;2023-03-01T13:35:57;14.40;1.00
23597;DHT22;40226;50.874;4.394;2023-03-01T13:38:44;14.30;1.00
23597;DHT22;40226;50.874;4.394;2023-03-01T13:41:10;14.80;1.00
23597;DHT22;40226;50.874;4.394;2023-03-01T13:43:38;14.60;1.00
23597;DHT22;40226;50.874;4.394;2023-03-01T13:46:24;14.60;1.00
23597;DHT22;40226;50.874;4.394;2023-03-01T13:48:53;15.40;99.90
23597;DHT22;40226;50.874;4.394;2023-03-01T13:51:24;15.80;99.90
23597;DHT22;40226;50.874;4.394;2023-03-01T13:53:51;15.70;99.90
23597;DHT22;40226;50.874;4.394;2023-03-01T13:56:23;15.90;99.90
23597;DHT22;40226;50.874;4.394;2023-03-01T13:59:17;16.60;56.10
23597;DHT22;40226;50.874;4.394;2023-03-01T14:01:43;16.50;93.50
23597;DHT22;40226;50.874;4.394;2023-03-01T14:04:29;16.40;92.90
23597;DHT22;40226;50.874;4.394;2023-03-01T14:07:26;15.80;99.90
23597;DHT22;40226;50.874;4.394;2023-03-01T14:10:06;15.50;96.30
23597;DHT22;40226;50.874;4.394;2023-03-01T14:21:24;16.50;1.00
23597;DHT22;40226;50.874;4.394;2023-03-01T14:23:51;16.50;1.00
23597;DHT22;40226;50.874;4.394;2023-03-01T14:26:23;16.00;1.00
23597;DHT22;40226;50.874;4.394;2023-03-01T14:28:50;15.10;1.00
23597;DHT22;40226;50.874;4.394;2023-03-01T14:31:35;14.70;1.00
23597;DHT22;40226;50.874;4.394;2023-03-01T14:34:02;14.90;1.00
23597;DHT22;40226;50.874;4.394;2023-03-01T14:36:31;15.30;1.00
23597;DHT22;40226;50.874;4.394;2023-03-01T14:38:57;15.20;1.00
23597;DHT22;40226;50.874;4.394;2023-03-01T14:41:34;15.20;1.00
23597;DHT22;40226;50.874;4.394;2023-03-01T14:44:07;15.60;1.00
23597;DHT22;40226;50.874;4.394;2023-03-01T14:46:40;14.90;1.00
23597;DHT22;40226;50.874;4.394;2023-03-01T14:49:20;14.20;1.00
23597;DHT22;40226;50.874;4.394;2023-03-01T14:52:16;13.50;1.00
23597;DHT22;40226;50.874;4.394;2023-03-01T14:54:53;12.20;1.00
23597;DHT22;40226;50.874;4.394;2023-03-01T14:57:22;11.10;1.00
23597;DHT22;40226;50.874;4.394;2023-03-01T14:59:49;10.80;1.00
23597;DHT22;40226;50.874;4.394;2023-03-01T15:02:20;10.20;1.00
23597;DHT22;40226;50.874;4.394;2023-03-01T15:04:50;9.90;1.00
23597;DHT22;40226;50.874;4.394;2023-03-01T15:07:17;9.60;1.00
23597;DHT22;40226;50.874;4.394;2023-03-01T15:09:43;9.10;1.00
23597;DHT22;40226;50.874;4.394;2023-03-01T15:12:36;8.80;1.00
23597;DHT22;40226;50.874;4.394;2023-03-01T15:15:30;8.70;1.00
23597;DHT22;40226;50.874;4.394;2023-03-01T15:18:03;8.60;1.00
23597;DHT22;40226;50.874;4.394;2023-03-01T15:20:30;8.60;1.00
23597;DHT22;40226;50.874;4.394;2023-03-01T15:23:00;8.50;1.00
23597;DHT22;40226;50.874;4.394;2023-03-01T15:25:28;8.40;1.00
23597;DHT22;40226;50.874;4.394;2023-03-01T15:27:56;8.30;1.00
23597;DHT22;40226;50.874;4.394;2023-03-01T15:30:26;8.30;1.00
23597;DHT22;40226;50.874;4.394;2023-03-01T15:33:33;8.30;3.30
23597;DHT22;40226;50.874;4.394;2023-03-01T15:35:59;8.50;10.60
23597;DHT22;40226;50.874;4.394;2023-03-01T15:38:34;8.40;25.70
23597;DHT22;40226;50.874;4.394;2023-03-01T15:41:03;8.30;28.50
23597;DHT22;40226;50.874;4.394;2023-03-01T15:48:47;8.20;56.50
23597;DHT22;40226;50.874;4.394;2023-03-01T15:51:15;8.40;54.60
23597;DHT22;40226;50.874;4.394;2023-03-01T15:53:47;8.20;50.00
23597;DHT22;40226;50.874;4.394;2023-03-01T15:56:15;8.20;60.20
23597;DHT22;40226;50.874;4.394;2023-03-01T15:58:40;8.20;57.10
23597;DHT22;40226;50.874;4.394;2023-03-01T16:01:12;8.20;52.10
23597;DHT22;40226;50.874;4.394;2023-03-01T16:03:39;8.10;82.00
23597;DHT22;40226;50.874;4.394;2023-03-01T16:06:04;8.10;74.00
23597;DHT22;40226;50.874;4.394;2023-03-01T16:08:30;8.10;80.20
23597;DHT22;40226;50.874;4.394;2023-03-01T16:10:56;7.90;86.40
23597;DHT22;40226;50.874;4.394;2023-03-01T16:13:21;7.90;96.40
23597;DHT22;40226;50.874;4.394;2023-03-01T16:15:47;7.80;99.90
23597;DHT22;40226;50.874;4.394;2023-03-01T16:18:13;7.80;99.90
23597;DHT22;40226;50.874;4.394;2023-03-01T16:20:38;7.80;99.90
23597;DHT22;40226;50.874;4.394;2023-03-01T16:23:07;7.80;99.90
23597;DHT22;40226;50.874;4.394;2023-03-01T16:25:36;7.80;99.90
23597;DHT22;40226;50.874;4.394;2023-03-01T16:28:02;7.70;99.90
23597;DHT22;40226;50.874;4.394;2023-03-01T16:30:33;7.80;99.90
23597;DHT22;40226;50.874;4.394;2023-03-01T16:33:00;7.70;99.90
23597;DHT22;40226;50.874;4.394;2023-03-01T16:35:26;7.80;99.90
23597;DHT22;40226;50.874;4.394;2023-03-01T16:37:52;7.80;99.90
23597;DHT22;40226;50.874;4.394;2023-03-01T16:40:24;7.70;99.90
23597;DHT22;40226;50.874;4.394;2023-03-01T16:42:51;7.70;99.90
23597;DHT22;40226;50.874;4.394;2023-03-01T16:45:18;7.70;99.90
23597;DHT22;40226;50.874;4.394;2023-03-01T16:47:44;7.80;99.90
23597;DHT22;40226;50.874;4.394;2023-03-01T16:50:10;7.70;99.90
23597;DHT22;40226;50.874;4.394;2023-03-01T16:52:36;7.70;99.90
23597;DHT22;40226;50.874;4.394;2023-03-01T16:55:03;7.70;99.90
23597;DHT22;40226;50.874;4.394;2023-03-01T16:57:30;7.50;99.90
23597;DHT22;40226;50.874;4.394;2023-03-01T16:59:56;7.60;99.90
23597;DHT22;40226;50.874;4.394;2023-03-01T17:02:22;7.50;99.90
23597;DHT22;40226;50.874;4.394;2023-03-01T17:04:54;7.40;99.90
23597;DHT22;40226;50.874;4.394;2023-03-01T17:07:21;7.40;99.90
23597;DHT22;40226;50.874;4.394;2023-03-01T17:09:46;7.20;99.90
23597;DHT22;40226;50.874;4.394;2023-03-01T17:12:13;7.10;99.90
23597;DHT22;40226;50.874;4.394;2023-03-01T17:14:39;7.20;99.90
23597;DHT22;40226;50.874;4.394;2023-03-01T17:17:10;7.10;99.90
23597;DHT22;40226;50.874;4.394;2023-03-01T17:19:37;7.20;99.90
23597;DHT22;40226;50.874;4.394;2023-03-01T17:22:09;7.10;99.90
23597;DHT22;40226;50.874;4.394;2023-03-01T17:24:37;7.00;99.90
23597;DHT22;40226;50.874;4.394;2023-03-01T17:27:03;7.00;99.90
23597;DHT22;40226;50.874;4.394;2023-03-01T17:29:30;6.90;99.90
23597;DHT22;40226;50.874;4.394;2023-03-01T17:31:55;6.80;99.90
23597;DHT22;40226;50.874;4.394;2023-03-01T17:34:22;6.90;99.90
23597;DHT22;40226;50.874;4.394;2023-03-01T17:36:49;6.80;99.90
23597;DHT22;40226;50.874;4.394;2023-03-01T17:39:17;7.10;99.90
23597;DHT22;40226;50.874;4.394;2023-03-01T17:41:44;7.00;99.90
23597;DHT22;40226;50.874;4.394;2023-03-01T17:44:10;6.90;99.90
23597;DHT22;40226;50.874;4.394;2023-03-01T17:46:36;6.90;1.00
23597;DHT22;40226;50.874;4.394;2023-03-01T17:49:01;6.80;1.00
23597;DHT22;40226;50.874;4.394;2023-03-01T17:51:27;6.70;1.00
23597;DHT22;40226;50.874;4.394;2023-03-01T17:53:53;6.70;1.00
23597;DHT22;40226;50.874;4.394;2023-03-01T17:56:18;6.70;1.00
23597;DHT22;40226;50.874;4.394;2023-03-01T17:58:44;6.80;1.00
23597;DHT22;40226;50.874;4.394;2023-03-01T18:01:20;6.70;1.00
23597;DHT22;40226;50.874;4.394;2023-03-01T18:03:46;6.70;1.00
23597;DHT22;40226;50.874;4.394;2023-03-01T18:06:12;6.60;1.00
23597;DHT22;40226;50.874;4.394;2023-03-01T18:08:38;6.50;1.00
23597;DHT22;40226;50.874;4.394;2023-03-01T18:11:04;6.50;1.00
23597;DHT22;40226;50.874;4.394;2023-03-01T18:13:30;6.40;1.00